sensor_id;sensor_type;location;lat;lon;timestamp;pressure;altitude;pressure_sealevel;temperature;humidity
47883;BME280;37739;50.350;7.578;2023-03-14T00:01:52;97647.72;;;11.78;71.29
47883;BME280;37739;50.350;7.578;2023-03-14T00:04:18;97646.03;;;11.76;71.15
47883;BME280;37739;50.350;7.578;2023-03-14T00:06:43;97658.00;;;11.69;71.34
47883;BME280;37739;50.350;7.578;2023-03-14T00:09:12;97670.81;;;11.74;71.07
47883;BME280;37739;50.350;7.578;2023-03-14T00:11:38;97661.44;;;11.76;71.07
47883;BME280;37739;50.350;7.578;2023-03-14T00:14:07;97667.41;;;11.73;71.20
47883;BME280;37739;50.350;7.578;2023-03-14T00:16:35;97654.56;;;11.73;71.20
47883;BME280;37739;50.350;7.578;2023-03-14T00:19:00;97650.28;;;11.75;71.11
47883;BME280;37739;50.350;7.578;2023-03-14T00:21:28;97666.56;;;11.74;71.01
47883;BME280;37739;50.350;7.578;2023-03-14T00:23:53;97660.56;;;11.71;71.43
47883;BME280;37739;50.350;7.578;2023-03-14T00:26:20;97652.84;;;11.68;71.72
47883;BME280;37739;50.350;7.578;2023-03-14T00:28:51;97658.00;;;11.69;71.70
47883;BME280;37739;50.350;7.578;2023-03-14T00:31:19;97648.56;;;11.70;72.02
47883;BME280;37739;50.350;7.578;2023-03-14T00:33:46;97637.44;;;11.69;71.95
47883;BME280;37739;50.350;7.578;2023-03-14T00:36:14;97634.88;;;11.71;72.21
47883;BME280;37739;50.350;7.578;2023-03-14T00:38:41;97626.31;;;11.72;72.14
47883;BME280;37739;50.350;7.578;2023-03-14T00:41:12;97619.47;;;11.69;72.32
47883;BME280;37739;50.350;7.578;2023-03-14T00:43:38;97621.19;;;11.69;72.22
47883;BME280;37739;50.350;7.578;2023-03-14T00:46:04;97619.47;;;11.68;72.19
47883;BME280;37739;50.350;7.578;2023-03-14T00:48:33;97613.50;;;11.66;72.04
47883;BME280;37739;50.350;7.578;2023-03-14T00:51:06;97610.91;;;11.66;72.10
47883;BME280;37739;50.350;7.578;2023-03-14T00:53:42;97605.78;;;11.58;72.43
47883;BME280;37739;50.350;7.578;2023-03-14T00:56:11;97601.53;;;11.54;72.76
47883;BME280;37739;50.350;7.578;2023-03-14T00:58:39;97582.72;;;11.52;73.01
47883;BME280;37739;50.350;7.578;2023-03-14T01:01:10;97598.09;;;11.49;73.07
47883;BME280;37739;50.350;7.578;2023-03-14T01:03:37;97591.28;;;11.46;73.10
47883;BME280;37739;50.350;7.578;2023-03-14T01:08:38;97574.16;;;11.50;72.96
47883;BME280;37739;50.350;7.578;2023-03-14T01:11:14;97575.03;;;11.47;73.10
47883;BME280;37739;50.350;7.578;2023-03-14T01:13:40;97580.16;;;11.41;73.55
47883;BME280;37739;50.350;7.578;2023-03-14T01:16:10;97579.34;;;11.37;73.90
47883;BME280;37739;50.350;7.578;2023-03-14T01:18:37;97572.47;;;11.38;73.72
47883;BME280;37739;50.350;7.578;2023-03-14T01:21:07;97565.63;;;11.28;74.38
47883;BME280;37739;50.350;7.578;2023-03-14T01:23:34;97547.69;;;11.23;74.81
47883;BME280;37739;50.350;7.578;2023-03-14T01:26:01;97524.59;;;11.25;74.34
47883;BME280;37739;50.350;7.578;2023-03-14T01:28:29;97532.28;;;11.23;74.50
47883;BME280;37739;50.350;7.578;2023-03-14T01:30:54;97519.44;;;11.20;74.94
47883;BME280;37739;50.350;7.578;2023-03-14T01:33:20;97516.91;;;11.09;74.78
47883;BME280;37739;50.350;7.578;2023-03-14T01:35:45;97520.34;;;11.14;74.65
47883;BME280;37739;50.350;7.578;2023-03-14T01:38:11;97514.31;;;11.12;74.70
47883;BME280;37739;50.350;7.578;2023-03-14T01:40:43;97516.06;;;11.03;74.65
47883;BME280;37739;50.350;7.578;2023-03-14T01:43:17;97533.19;;;11.07;74.46
47883;BME280;37739;50.350;7.578;2023-03-14T01:51:17;97535.72;;;11.08;73.53
47883;BME280;37739;50.350;7.578;2023-03-14T01:53:43;97544.28;;;11.06;73.52
47883;BME280;37739;50.350;7.578;2023-03-14T01:56:11;97530.63;;;11.07;73.54
47883;BME280;37739;50.350;7.578;2023-03-14T01:58:43;97540.00;;;11.11;73.07
47883;BME280;37739;50.350;7.578;2023-03-14T02:01:18;97538.28;;;11.13;72.96
47883;BME280;37739;50.350;7.578;2023-03-14T02:03:50;97539.16;;;11.09;72.45
47883;BME280;37739;50.350;7.578;2023-03-14T02:06:19;97551.13;;;11.14;72.04
47883;BME280;37739;50.350;7.578;2023-03-14T02:08:48;97530.59;;;11.08;72.25
47883;BME280;37739;50.350;7.578;2023-03-14T02:11:16;97549.44;;;11.07;72.04
47883;BME280;37739;50.350;7.578;2023-03-14T02:13:42;97547.69;;;11.08;72.06
47883;BME280;37739;50.350;7.578;2023-03-14T02:16:08;97552.00;;;11.07;72.15
47883;BME280;37739;50.350;7.578;2023-03-14T02:18:36;97554.53;;;11.04;72.23
47883;BME280;37739;50.350;7.578;2023-03-14T02:21:16;97541.72;;;11.06;72.02
47883;BME280;37739;50.350;7.578;2023-03-14T02:23:59;97540.00;;;11.05;71.74
47883;BME280;37739;50.350;7.578;2023-03-14T02:29:30;97534.88;;;11.00;71.77
47883;BME280;37739;50.350;7.578;2023-03-14T02:31:57;97530.59;;;11.00;71.83
47883;BME280;37739;50.350;7.578;2023-03-14T02:34:24;97535.75;;;11.05;71.92
47883;BME280;37739;50.350;7.578;2023-03-14T02:36:49;97542.56;;;11.05;71.82
47883;BME280;37739;50.350;7.578;2023-03-14T02:39:20;97535.75;;;10.99;71.62
47883;BME280;37739;50.350;7.578;2023-03-14T02:41:49;97530.59;;;10.93;71.69
47883;BME280;37739;50.350;7.578;2023-03-14T02:44:14;97533.19;;;10.94;71.65
47883;BME280;37739;50.350;7.578;2023-03-14T02:46:39;97521.19;;;10.95;71.69
47883;BME280;37739;50.350;7.578;2023-03-14T02:49:12;97521.19;;;10.98;71.63
47883;BME280;37739;50.350;7.578;2023-03-14T02:51:43;97518.63;;;10.98;71.74
47883;BME280;37739;50.350;7.578;2023-03-14T02:54:12;97523.78;;;10.98;71.50
47883;BME280;37739;50.350;7.578;2023-03-14T02:56:41;97526.34;;;10.98;71.61
47883;BME280;37739;50.350;7.578;2023-03-14T02:59:09;97538.31;;;10.96;71.39
47883;BME280;37739;50.350;7.578;2023-03-14T03:01:34;97541.75;;;10.93;71.50
47883;BME280;37739;50.350;7.578;2023-03-14T03:03:59;97525.50;;;10.91;71.25
47883;BME280;37739;50.350;7.578;2023-03-14T03:06:25;97534.91;;;10.86;70.97
47883;BME280;37739;50.350;7.578;2023-03-14T03:08:50;97525.50;;;10.82;71.31
47883;BME280;37739;50.350;7.578;2023-03-14T03:11:16;97531.50;;;10.86;71.34
47883;BME280;37739;50.350;7.578;2023-03-14T03:13:41;97534.06;;;10.86;71.41
47883;BME280;37739;50.350;7.578;2023-03-14T03:16:09;97533.19;;;10.87;71.40
47883;BME280;37739;50.350;7.578;2023-03-14T03:18:35;97516.06;;;10.79;70.99
47883;BME280;37739;50.350;7.578;2023-03-14T03:21:03;97512.69;;;10.76;71.59
47883;BME280;37739;50.350;7.578;2023-03-14T03:23:29;97510.09;;;10.77;71.44
47883;BME280;37739;50.350;7.578;2023-03-14T03:25:55;97506.69;;;10.77;71.29
47883;BME280;37739;50.350;7.578;2023-03-14T03:28:20;97501.56;;;10.75;71.24
47883;BME280;37739;50.350;7.578;2023-03-14T03:30:45;97505.81;;;10.81;71.14
47883;BME280;37739;50.350;7.578;2023-03-14T03:33:14;97498.16;;;10.76;71.21
47883;BME280;37739;50.350;7.578;2023-03-14T03:35:47;97489.56;;;10.77;71.15
47883;BME280;37739;50.350;7.578;2023-03-14T03:38:15;97490.44;;;10.86;71.22
47883;BME280;37739;50.350;7.578;2023-03-14T03:40:43;97475.03;;;10.79;71.06
47883;BME280;37739;50.350;7.578;2023-03-14T03:43:11;97481.88;;;10.85;71.26
47883;BME280;37739;50.350;7.578;2023-03-14T03:45:36;97487.88;;;10.81;71.41
47883;BME280;37739;50.350;7.578;2023-03-14T03:48:01;97482.75;;;10.83;71.45
47883;BME280;37739;50.350;7.578;2023-03-14T03:50:27;97488.72;;;10.81;71.36
47883;BME280;37739;50.350;7.578;2023-03-14T03:52:52;97480.19;;;10.83;71.72
47883;BME280;37739;50.350;7.578;2023-03-14T03:55:17;97483.59;;;10.83;71.74
47883;BME280;37739;50.350;7.578;2023-03-14T03:57:45;97478.47;;;10.77;72.14
47883;BME280;37739;50.350;7.578;2023-03-14T04:00:13;97475.91;;;10.75;72.29
47883;BME280;37739;50.350;7.578;2023-03-14T04:02:41;97476.75;;;10.77;72.34
47883;BME280;37739;50.350;7.578;2023-03-14T04:05:06;97475.91;;;10.74;72.75
47883;BME280;37739;50.350;7.578;2023-03-14T04:07:34;97475.94;;;10.72;72.87
47883;BME280;37739;50.350;7.578;2023-03-14T04:09:59;97459.69;;;10.70;72.90
47883;BME280;37739;50.350;7.578;2023-03-14T04:12:25;97474.22;;;10.73;73.00
47883;BME280;37739;50.350;7.578;2023-03-14T04:14:50;97460.53;;;10.71;72.95
47883;BME280;37739;50.350;7.578;2023-03-14T04:17:16;97465.66;;;10.74;73.09
47883;BME280;37739;50.350;7.578;2023-03-14T04:19:41;97468.22;;;10.74;73.03
47883;BME280;37739;50.350;7.578;2023-03-14T04:22:07;97469.09;;;10.67;73.10
47883;BME280;37739;50.350;7.578;2023-03-14T04:24:33;97460.53;;;10.66;73.03
47883;BME280;37739;50.350;7.578;2023-03-14T04:26:58;97460.53;;;10.63;73.26
47883;BME280;37739;50.350;7.578;2023-03-14T04:29:23;97454.56;;;10.61;73.28
47883;BME280;37739;50.350;7.578;2023-03-14T04:31:53;97454.53;;;10.64;73.32
47883;BME280;37739;50.350;7.578;2023-03-14T04:34:21;97455.41;;;10.63;73.28
47883;BME280;37739;50.350;7.578;2023-03-14T04:36:46;97453.69;;;10.64;73.76
47883;BME280;37739;50.350;7.578;2023-03-14T04:39:12;97450.28;;;10.60;74.17
47883;BME280;37739;50.350;7.578;2023-03-14T04:41:37;97451.16;;;10.60;74.20
47883;BME280;37739;50.350;7.578;2023-03-14T04:44:04;97465.66;;;10.63;74.06
47883;BME280;37739;50.350;7.578;2023-03-14T04:46:30;97468.22;;;10.61;74.48
47883;BME280;37739;50.350;7.578;2023-03-14T04:48:55;97474.22;;;10.65;74.50
47883;BME280;37739;50.350;7.578;2023-03-14T04:51:21;97472.50;;;10.67;74.39
47883;BME280;37739;50.350;7.578;2023-03-14T04:53:48;97467.38;;;10.64;74.89
47883;BME280;37739;50.350;7.578;2023-03-14T04:56:13;97475.91;;;10.66;74.71
47883;BME280;37739;50.350;7.578;2023-03-14T04:58:39;97476.78;;;10.54;75.46
47883;BME280;37739;50.350;7.578;2023-03-14T05:01:05;97477.63;;;10.58;75.62
47883;BME280;37739;50.350;7.578;2023-03-14T05:03:34;97477.63;;;10.58;75.63
47883;BME280;37739;50.350;7.578;2023-03-14T05:06:03;97461.41;;;10.59;75.69
47883;BME280;37739;50.350;7.578;2023-03-14T05:08:29;97463.13;;;10.51;76.09
47883;BME280;37739;50.350;7.578;2023-03-14T05:10:55;97457.97;;;10.52;76.37
47883;BME280;37739;50.350;7.578;2023-03-14T05:13:24;97472.50;;;10.53;76.05
47883;BME280;37739;50.350;7.578;2023-03-14T05:15:51;97460.56;;;10.48;76.47
47883;BME280;37739;50.350;7.578;2023-03-14T05:18:18;97460.56;;;10.43;77.44
47883;BME280;37739;50.350;7.578;2023-03-14T05:20:43;97451.16;;;10.44;76.66
47883;BME280;37739;50.350;7.578;2023-03-14T05:23:09;97446.00;;;10.40;77.17
47883;BME280;37739;50.350;7.578;2023-03-14T05:25:34;97434.91;;;10.32;77.33
47883;BME280;37739;50.350;7.578;2023-03-14T05:28:00;97422.09;;;10.26;77.77
47883;BME280;37739;50.350;7.578;2023-03-14T05:30:25;97426.34;;;10.24;77.15
47883;BME280;37739;50.350;7.578;2023-03-14T05:32:50;97414.38;;;10.17;76.04
47883;BME280;37739;50.350;7.578;2023-03-14T05:35:16;97416.94;;;10.11;76.21
47883;BME280;37739;50.350;7.578;2023-03-14T05:37:45;97409.25;;;10.09;76.04
47883;BME280;37739;50.350;7.578;2023-03-14T05:40:13;97405.00;;;10.07;75.61
47883;BME280;37739;50.350;7.578;2023-03-14T05:42:39;97386.19;;;9.98;75.23
47883;BME280;37739;50.350;7.578;2023-03-14T05:45:04;97392.19;;;9.97;75.26
47883;BME280;37739;50.350;7.578;2023-03-14T05:47:34;97392.19;;;9.97;75.67
47883;BME280;37739;50.350;7.578;2023-03-14T05:50:00;97390.47;;;9.96;75.81
47883;BME280;37739;50.350;7.578;2023-03-14T05:52:25;97377.66;;;10.01;75.70
47883;BME280;37739;50.350;7.578;2023-03-14T05:54:52;97380.22;;;10.02;75.56
47883;BME280;37739;50.350;7.578;2023-03-14T05:57:22;97371.66;;;10.00;75.68
47883;BME280;37739;50.350;7.578;2023-03-14T05:59:48;97372.53;;;10.02;75.67
47883;BME280;37739;50.350;7.578;2023-03-14T06:02:15;97385.34;;;9.99;76.16
47883;BME280;37739;50.350;7.578;2023-03-14T06:04:41;97377.66;;;9.98;75.96
47883;BME280;37739;50.350;7.578;2023-03-14T06:07:06;97384.47;;;10.02;75.83
47883;BME280;37739;50.350;7.578;2023-03-14T06:09:34;97390.47;;;10.01;76.02
47883;BME280;37739;50.350;7.578;2023-03-14T06:11:59;97385.34;;;10.04;76.09
47883;BME280;37739;50.350;7.578;2023-03-14T06:14:24;97384.50;;;10.03;76.45
47883;BME280;37739;50.350;7.578;2023-03-14T06:16:50;97378.53;;;10.03;76.50
47883;BME280;37739;50.350;7.578;2023-03-14T06:19:18;97373.41;;;10.09;76.56
47883;BME280;37739;50.350;7.578;2023-03-14T06:21:44;97381.94;;;10.13;76.68
47883;BME280;37739;50.350;7.578;2023-03-14T06:24:09;97377.66;;;10.15;76.70
47883;BME280;37739;50.350;7.578;2023-03-14T06:26:34;97381.09;;;10.18;76.69
47883;BME280;37739;50.350;7.578;2023-03-14T06:29:00;97391.34;;;10.20;76.57
47883;BME280;37739;50.350;7.578;2023-03-14T06:31:31;97390.47;;;10.18;76.69
47883;BME280;37739;50.350;7.578;2023-03-14T06:33:56;97393.91;;;10.20;77.11
47883;BME280;37739;50.350;7.578;2023-03-14T06:36:21;97385.34;;;10.22;78.61
47883;BME280;37739;50.350;7.578;2023-03-14T06:38:47;97384.50;;;10.20;78.91
47883;BME280;37739;50.350;7.578;2023-03-14T06:41:12;97391.34;;;10.18;79.15
47883;BME280;37739;50.350;7.578;2023-03-14T06:43:37;97384.50;;;10.20;78.98
47883;BME280;37739;50.350;7.578;2023-03-14T06:46:03;97381.94;;;10.19;79.44
47883;BME280;37739;50.350;7.578;2023-03-14T06:48:28;97377.66;;;10.15;79.44
47883;BME280;37739;50.350;7.578;2023-03-14T06:50:54;97382.78;;;10.16;79.34
47883;BME280;37739;50.350;7.578;2023-03-14T06:53:19;97375.97;;;10.18;79.45
47883;BME280;37739;50.350;7.578;2023-03-14T06:55:45;97387.03;;;10.16;80.30
47883;BME280;37739;50.350;7.578;2023-03-14T06:58:11;97377.66;;;10.18;79.95
47883;BME280;37739;50.350;7.578;2023-03-14T07:00:36;97383.66;;;10.20;79.30
47883;BME280;37739;50.350;7.578;2023-03-14T07:03:02;97387.03;;;10.25;79.69
47883;BME280;37739;50.350;7.578;2023-03-14T07:05:27;97377.66;;;10.33;79.41
47883;BME280;37739;50.350;7.578;2023-03-14T07:07:55;97392.19;;;10.33;79.12
47883;BME280;37739;50.350;7.578;2023-03-14T07:10:20;97385.34;;;10.24;79.97
47883;BME280;37739;50.350;7.578;2023-03-14T07:12:46;97383.66;;;10.31;79.50
47883;BME280;37739;50.350;7.578;2023-03-14T07:15:14;97386.25;;;10.35;79.41
47883;BME280;37739;50.350;7.578;2023-03-14T07:17:39;97378.53;;;10.37;79.16
47883;BME280;37739;50.350;7.578;2023-03-14T07:20:08;97386.25;;;10.35;79.05
47883;BME280;37739;50.350;7.578;2023-03-14T07:22:34;97378.53;;;10.41;79.03
47883;BME280;37739;50.350;7.578;2023-03-14T07:24:59;97371.69;;;10.53;78.73
47883;BME280;37739;50.350;7.578;2023-03-14T07:27:27;97381.91;;;10.54;78.67
47883;BME280;37739;50.350;7.578;2023-03-14T07:29:52;97382.78;;;10.63;78.72
47883;BME280;37739;50.350;7.578;2023-03-14T07:32:17;97387.88;;;10.75;78.49
47883;BME280;37739;50.350;7.578;2023-03-14T07:34:43;97380.19;;;10.76;78.00
47883;BME280;37739;50.350;7.578;2023-03-14T07:37:09;97382.72;;;10.83;77.78
47883;BME280;37739;50.350;7.578;2023-03-14T07:39:34;97370.72;;;10.94;77.57
47883;BME280;37739;50.350;7.578;2023-03-14T07:42:00;97374.13;;;10.96;77.17
47883;BME280;37739;50.350;7.578;2023-03-14T07:44:25;97386.06;;;10.97;77.48
47883;BME280;37739;50.350;7.578;2023-03-14T07:46:53;97378.38;;;11.02;77.00
47883;BME280;37739;50.350;7.578;2023-03-14T07:49:18;97380.94;;;11.00;77.04
47883;BME280;37739;50.350;7.578;2023-03-14T07:51:49;97395.50;;;10.99;77.02
47883;BME280;37739;50.350;7.578;2023-03-14T07:54:17;97388.66;;;11.00;77.15
47883;BME280;37739;50.350;7.578;2023-03-14T07:56:42;97398.06;;;10.96;77.32
47883;BME280;37739;50.350;7.578;2023-03-14T07:59:08;97398.91;;;11.00;77.54
47883;BME280;37739;50.350;7.578;2023-03-14T08:01:35;97415.19;;;10.99;77.31
47883;BME280;37739;50.350;7.578;2023-03-14T08:04:00;97411.75;;;10.89;77.58
47883;BME280;37739;50.350;7.578;2023-03-14T08:06:26;97416.03;;;10.92;77.76
47883;BME280;37739;50.350;7.578;2023-03-14T08:08:53;97412.63;;;10.90;78.06
47883;BME280;37739;50.350;7.578;2023-03-14T08:11:19;97410.03;;;10.99;77.60
47883;BME280;37739;50.350;7.578;2023-03-14T08:13:46;97401.44;;;11.05;77.35
47883;BME280;37739;50.350;7.578;2023-03-14T08:16:16;97402.28;;;11.11;77.23
47883;BME280;37739;50.350;7.578;2023-03-14T08:18:45;97389.47;;;11.13;76.88
47883;BME280;37739;50.350;7.578;2023-03-14T08:21:10;97386.00;;;11.20;76.81
47883;BME280;37739;50.350;7.578;2023-03-14T08:23:38;97395.41;;;11.19;77.18
47883;BME280;37739;50.350;7.578;2023-03-14T08:26:06;97394.56;;;11.19;76.88
47883;BME280;37739;50.350;7.578;2023-03-14T08:28:33;97402.28;;;11.20;76.81
47883;BME280;37739;50.350;7.578;2023-03-14T08:31:02;97402.25;;;11.27;76.75
47883;BME280;37739;50.350;7.578;2023-03-14T08:33:30;97402.22;;;11.31;76.55
47883;BME280;37739;50.350;7.578;2023-03-14T08:35:59;97407.31;;;11.42;76.79
47883;BME280;37739;50.350;7.578;2023-03-14T08:38:25;97393.59;;;11.46;76.37
47883;BME280;37739;50.350;7.578;2023-03-14T08:41:00;97389.28;;;11.48;76.42
47883;BME280;37739;50.350;7.578;2023-03-14T08:43:29;97408.09;;;11.52;76.26
47883;BME280;37739;50.350;7.578;2023-03-14T08:45:58;97403.00;;;11.47;76.49
47883;BME280;37739;50.350;7.578;2023-03-14T08:48:26;97401.28;;;11.48;76.87
47883;BME280;37739;50.350;7.578;2023-03-14T08:50:52;97402.09;;;11.57;76.66
47883;BME280;37739;50.350;7.578;2023-03-14T08:53:19;97403.78;;;11.65;76.39
47883;BME280;37739;50.350;7.578;2023-03-14T08:55:46;97408.91;;;11.63;76.50
47883;BME280;37739;50.350;7.578;2023-03-14T08:58:13;97412.31;;;11.67;76.25
47883;BME280;37739;50.350;7.578;2023-03-14T09:00:38;97405.50;;;11.63;76.19
47883;BME280;37739;50.350;7.578;2023-03-14T09:03:06;97403.78;;;11.58;76.66
47883;BME280;37739;50.350;7.578;2023-03-14T09:05:34;97408.06;;;11.61;76.63
47883;BME280;37739;50.350;7.578;2023-03-14T09:07:59;97415.72;;;11.64;76.82
47883;BME280;37739;50.350;7.578;2023-03-14T09:10:25;97413.13;;;11.73;77.08
47883;BME280;37739;50.350;7.578;2023-03-14T09:12:52;97404.63;;;11.67;77.12
47883;BME280;37739;50.350;7.578;2023-03-14T09:15:17;97408.88;;;11.68;77.42
47883;BME280;37739;50.350;7.578;2023-03-14T09:17:45;97405.44;;;11.69;77.56
47883;BME280;37739;50.350;7.578;2023-03-14T09:20:15;97416.56;;;11.66;77.50
47883;BME280;37739;50.350;7.578;2023-03-14T09:22:43;97414.00;;;11.66;77.41
47883;BME280;37739;50.350;7.578;2023-03-14T09:25:08;97423.47;;;11.61;77.45
47883;BME280;37739;50.350;7.578;2023-03-14T09:27:37;97416.63;;;11.60;77.48
47883;BME280;37739;50.350;7.578;2023-03-14T09:30:03;97420.88;;;11.66;77.42
47883;BME280;37739;50.350;7.578;2023-03-14T09:32:32;97425.16;;;11.62;77.82
47883;BME280;37739;50.350;7.578;2023-03-14T09:34:57;97435.47;;;11.61;77.73
47883;BME280;37739;50.350;7.578;2023-03-14T09:37:25;97439.75;;;11.57;77.82
47883;BME280;37739;50.350;7.578;2023-03-14T09:39:53;97438.06;;;11.53;78.32
47883;BME280;37739;50.350;7.578;2023-03-14T09:42:22;97436.34;;;11.50;78.81
47883;BME280;37739;50.350;7.578;2023-03-14T09:44:56;97439.75;;;11.55;78.95
47883;BME280;37739;50.350;7.578;2023-03-14T09:47:23;97435.47;;;11.56;78.53
47883;BME280;37739;50.350;7.578;2023-03-14T09:49:49;97439.72;;;11.58;78.87
47883;BME280;37739;50.350;7.578;2023-03-14T09:52:17;97442.25;;;11.66;78.59
47883;BME280;37739;50.350;7.578;2023-03-14T09:54:49;97449.97;;;11.72;77.80
47883;BME280;37739;50.350;7.578;2023-03-14T09:57:19;97458.50;;;11.76;77.55
47883;BME280;37739;50.350;7.578;2023-03-14T09:59:49;97452.50;;;11.77;77.43
47883;BME280;37739;50.350;7.578;2023-03-14T10:02:18;97462.75;;;11.74;77.25
47883;BME280;37739;50.350;7.578;2023-03-14T10:04:48;97458.50;;;11.76;77.42
47883;BME280;37739;50.350;7.578;2023-03-14T10:07:32;97460.19;;;11.75;77.38
47883;BME280;37739;50.350;7.578;2023-03-14T10:10:00;97461.91;;;11.78;77.66
47883;BME280;37739;50.350;7.578;2023-03-14T10:12:36;97460.22;;;11.71;77.73
47883;BME280;37739;50.350;7.578;2023-03-14T10:15:12;97473.91;;;11.70;77.88
47883;BME280;37739;50.350;7.578;2023-03-14T10:17:47;97467.06;;;11.76;77.61
47883;BME280;37739;50.350;7.578;2023-03-14T10:20:35;97464.44;;;11.81;77.54
47883;BME280;37739;50.350;7.578;2023-03-14T10:25:36;97460.19;;;11.77;77.26
47883;BME280;37739;50.350;7.578;2023-03-14T10:28:05;97469.59;;;11.81;77.23
47883;BME280;37739;50.350;7.578;2023-03-14T10:30:43;97467.84;;;11.89;77.29
47883;BME280;37739;50.350;7.578;2023-03-14T10:33:21;97474.66;;;11.98;77.05
47883;BME280;37739;50.350;7.578;2023-03-14T10:38:35;97486.63;;;12.01;77.05
47883;BME280;37739;50.350;7.578;2023-03-14T10:41:15;97497.78;;;12.00;77.69
47883;BME280;37739;50.350;7.578;2023-03-14T10:43:44;97504.63;;;12.01;77.94
47883;BME280;37739;50.350;7.578;2023-03-14T10:46:15;97524.34;;;11.98;78.49
47883;BME280;37739;50.350;7.578;2023-03-14T10:48:42;97574.88;;;12.00;80.70
47883;BME280;37739;50.350;7.578;2023-03-14T10:54:03;97628.31;;;9.32;93.36
47883;BME280;37739;50.350;7.578;2023-03-14T10:56:37;97629.59;;;8.80;95.40
47883;BME280;37739;50.350;7.578;2023-03-14T10:59:06;97645.75;;;8.76;96.28
47883;BME280;37739;50.350;7.578;2023-03-14T11:04:02;97679.84;;;8.78;95.72
47883;BME280;37739;50.350;7.578;2023-03-14T11:06:35;97679.03;;;8.82;93.84
47883;BME280;37739;50.350;7.578;2023-03-14T11:09:12;97693.31;;;8.63;94.99
47883;BME280;37739;50.350;7.578;2023-03-14T11:11:46;97710.13;;;8.44;93.40
47883;BME280;37739;50.350;7.578;2023-03-14T11:14:20;97731.22;;;8.30;94.54
47883;BME280;37739;50.350;7.578;2023-03-14T11:19:31;97751.69;;;8.33;96.10
47883;BME280;37739;50.350;7.578;2023-03-14T11:27:42;97796.88;;;8.35;95.98
47883;BME280;37739;50.350;7.578;2023-03-14T11:30:25;97803.94;;;8.52;97.31
47883;BME280;37739;50.350;7.578;2023-03-14T11:33:13;97821.91;;;8.59;93.31
47883;BME280;37739;50.350;7.578;2023-03-14T11:41:15;97846.84;;;8.16;90.30
47883;BME280;37739;50.350;7.578;2023-03-14T11:43:48;97865.75;;;8.28;89.86
47883;BME280;37739;50.350;7.578;2023-03-14T11:46:25;97889.84;;;8.43;89.89
47883;BME280;37739;50.350;7.578;2023-03-14T11:51:46;97887.56;;;8.60;88.47
47883;BME280;37739;50.350;7.578;2023-03-14T11:57:30;97902.91;;;8.63;87.75
47883;BME280;37739;50.350;7.578;2023-03-14T12:00:17;97911.56;;;8.73;86.28
47883;BME280;37739;50.350;7.578;2023-03-14T12:05:24;97905.72;;;8.80;87.35
47883;BME280;37739;50.350;7.578;2023-03-14T12:13:03;97925.41;;;9.55;85.25
47883;BME280;37739;50.350;7.578;2023-03-14T12:15:30;97924.28;;;9.34;82.19
47883;BME280;37739;50.350;7.578;2023-03-14T12:17:58;97925.16;;;9.36;80.58
47883;BME280;37739;50.350;7.578;2023-03-14T12:20:26;97921.59;;;9.22;80.44
47883;BME280;37739;50.350;7.578;2023-03-14T12:23:02;97934.94;;;8.99;82.27
47883;BME280;37739;50.350;7.578;2023-03-14T12:25:31;97941.28;;;9.28;82.37
47883;BME280;37739;50.350;7.578;2023-03-14T12:38:14;97940.78;;;10.48;76.66
47883;BME280;37739;50.350;7.578;2023-03-14T12:41:20;97960.09;;;10.14;76.97
47883;BME280;37739;50.350;7.578;2023-03-14T12:43:50;97975.06;;;9.71;78.67
47883;BME280;37739;50.350;7.578;2023-03-14T12:48:55;97992.69;;;8.85;80.90
47883;BME280;37739;50.350;7.578;2023-03-14T12:51:38;98006.31;;;8.82;80.03
47883;BME280;37739;50.350;7.578;2023-03-14T12:57:38;98032.63;;;8.74;78.61
47883;BME280;37739;50.350;7.578;2023-03-14T13:00:34;98039.25;;;8.62;80.17
47883;BME280;37739;50.350;7.578;2023-03-14T13:06:02;98053.50;;;9.03;80.23
47883;BME280;37739;50.350;7.578;2023-03-14T13:10:57;98063.97;;;9.18;79.46
47883;BME280;37739;50.350;7.578;2023-03-14T13:13:27;98071.81;;;9.31;78.00
47883;BME280;37739;50.350;7.578;2023-03-14T13:15:57;98075.94;;;9.21;77.17
47883;BME280;37739;50.350;7.578;2023-03-14T13:19:11;98089.59;;;9.21;76.52
47883;BME280;37739;50.350;7.578;2023-03-14T13:21:42;98121.94;;;9.16;75.24
47883;BME280;37739;50.350;7.578;2023-03-14T13:24:23;98144.38;;;8.35;78.92
47883;BME280;37739;50.350;7.578;2023-03-14T13:26:49;98126.06;;;7.35;82.84
47883;BME280;37739;50.350;7.578;2023-03-14T13:29:25;98162.75;;;6.70;85.32
47883;BME280;37739;50.350;7.578;2023-03-14T13:31:54;98157.81;;;6.43;86.44
47883;BME280;37739;50.350;7.578;2023-03-14T13:34:25;98158.78;;;6.48;87.75
47883;BME280;37739;50.350;7.578;2023-03-14T13:36:57;98169.03;;;6.19;90.15
47883;BME280;37739;50.350;7.578;2023-03-14T13:39:25;98174.13;;;6.19;90.62
47883;BME280;37739;50.350;7.578;2023-03-14T13:41:53;98194.88;;;6.03;91.12
47883;BME280;37739;50.350;7.578;2023-03-14T13:44:30;98189.84;;;6.06;93.00
47883;BME280;37739;50.350;7.578;2023-03-14T13:47:00;98204.97;;;6.30;90.78
47883;BME280;37739;50.350;7.578;2023-03-14T13:49:27;98221.22;;;6.34;89.68
47883;BME280;37739;50.350;7.578;2023-03-14T13:51:54;98222.81;;;6.30;89.79
47883;BME280;37739;50.350;7.578;2023-03-14T13:54:21;98237.56;;;6.42;90.06
47883;BME280;37739;50.350;7.578;2023-03-14T13:56:47;98253.50;;;6.35;89.25
47883;BME280;37739;50.350;7.578;2023-03-14T13:59:26;98252.13;;;6.46;89.83
47883;BME280;37739;50.350;7.578;2023-03-14T14:01:53;98261.25;;;6.38;89.44
47883;BME280;37739;50.350;7.578;2023-03-14T14:04:24;98279.78;;;6.64;89.69
47883;BME280;37739;50.350;7.578;2023-03-14T14:06:56;98286.22;;;6.80;88.47
47883;BME280;37739;50.350;7.578;2023-03-14T14:09:27;98288.06;;;6.85;88.98
47883;BME280;37739;50.350;7.578;2023-03-14T14:12:02;98303.09;;;7.08;89.28
47883;BME280;37739;50.350;7.578;2023-03-14T14:14:48;98302.59;;;7.20;88.74
47883;BME280;37739;50.350;7.578;2023-03-14T14:17:18;98318.16;;;7.31;87.10
47883;BME280;37739;50.350;7.578;2023-03-14T14:19:46;98323.94;;;7.25;86.10
47883;BME280;37739;50.350;7.578;2023-03-14T14:22:12;98321.91;;;7.12;85.33